Date,TemperatureHighF,TemperatureAvgF,TemperatureLowF,DewpointHighF,DewpointAvgF,DewpointLowF,HumidityHigh,HumidityAvg,HumidityLow,PressureMaxIn,PressureMinIn,WindSpeedMaxMPH,WindSpeedAvgMPH,GustSpeedMaxMPH,PrecipitationSumIn
2012-1-1,51.6,43.6,37.0,43.2,35.0,24.4,94,72,52,30.04,29.62,22,4,24,0.04
2012-1-2,38.3,31.9,25.3,27.8,17.1,11.2,77,55,40,29.80,29.68,33,6,33,0.00
2012-1-3,25.3,19.3,7.9,17.1,1.7,-10.4,72,46,40,30.19,29.80,26,5,26,0.00
2012-1-4,24.1,15.8,6.4,15.6,2.0,-11.8,79,55,42,30.19,29.86,10,2,10,0.00
2012-1-5,38.7,27.7,21.4,25.2,20.1,14.1,93,73,53,29.89,29.80,15,1,15,0.00
2012-1-6,54.9,35.3,22.1,36.6,28.2,21.8,100,78,50,29.83,29.65,7,0,7,0.00
2012-1-7,57.6,38.6,25.5,42.1,30.2,22.7,100,75,49,29.98,29.68,19,2,19,0.00
2012-1-8,45.3,34.8,25.9,29.4,23.9,15.7,84,65,52,30.27,29.98,13,2,14,0.00
2012-1-9,44.1,31.5,21.9,27.5,21.9,18.2,91,68,50,30.24,29.89,12,1,12,0.00
2012-1-10,44.1,31.1,21.9,31.6,25.6,21.8,100,82,55,29.98,29.83,13,1,13,0.00
2012-1-11,49.3,33.3,20.8,37.8,29.5,20.7,100,88,54,29.98,29.62,9,1,9,0.20
2012-1-12,43.3,40.8,35.8,43.3,40.8,35.8,100,100,100,29.62,29.30,7,1,8,0.59
2012-1-13,42.6,28.4,23.0,42.6,21.5,10.7,100,76,57,29.80,29.18,30,8,30,0.59
2012-1-14,34.5,25.5,21.2,19.4,15.8,12.3,85,67,53,30.07,29.77,17,5,17,0.00
2012-1-15,26.1,16.2,8.8,12.3,4.2,-2.6,69,59,51,30.48,30.07,17,3,17,0.00
2012-1-16,34.9,22.7,8.4,27.1,12.9,0.4,80,66,52,30.48,30.01,19,2,19,0.00
2012-1-17,47.5,36.3,32.4,45.2,35.2,26.8,100,96,64,30.01,29.51,28,1,28,0.04
2012-1-18,43.5,30.9,18.1,32.8,17.7,8.0,73,58,50,30.10,29.59,28,6,28,0.00
2012-1-19,31.1,22.0,11.7,26.6,15.5,8.1,100,77,53,30.10,29.83,21,2,22,0.00
2012-1-20,31.6,22.4,14.7,26.6,10.7,4.4,100,61,51,30.22,29.86,18,2,18,0.08
2012-1-21,32.5,24.3,20.1,24.1,19.9,11.6,100,84,62,30.27,29.95,14,1,14,0.35
2012-1-22,30.0,19.1,8.8,25.0,13.5,6.7,100,80,61,30.39,30.24,7,0,7,0.00
2012-1-23,37.8,31.0,24.6,37.6,31.0,24.6,100,100,100,30.27,29.80,10,0,10,0.04
2012-1-24,43.3,37.5,33.6,38.7,33.6,28.0,100,86,70,30.16,29.83,17,3,17,0.00
2012-1-25,41.4,34.9,32.0,30.1,27.7,25.8,92,75,61,30.27,30.13,15,2,15,0.00
2012-1-26,35.4,32.9,31.5,34.5,32.0,29.8,100,97,92,30.16,29.68,5,0,5,0.39
2012-1-27,50.4,39.4,34.2,48.4,35.4,28.5,100,87,66,29.89,29.39,22,3,24,0.16
2012-1-28,46.0,36.8,30.2,35.0,26.3,16.3,87,66,52,30.01,29.77,26,5,26,0.00
2012-1-29,42.4,33.2,26.6,32.9,19.2,12.6,100,57,50,30.10,29.92,24,5,24,0.00
2012-1-30,41.5,32.1,24.6,24.6,18.9,14.6,76,58,51,30.24,29.98,23,4,23,0.00
2012-1-31,51.1,36.4,23.2,33.6,25.4,17.0,82,65,49,30.10,29.92,6,0,6,0.00
2012-2-1,57.6,47.8,36.1,45.0,39.1,32.3,90,72,54,29.98,29.86,22,4,22,0.00
2012-2-2,42.3,36.0,31.8,34.2,31.7,29.6,100,85,73,29.98,29.95,9,1,9,0.00
2012-2-3,50.2,32.0,27.3,32.4,22.5,19.9,83,69,49,30.42,30.27,15,1,15,0.00
2012-2-4,44.2,32.5,23.5,31.5,26.0,23.2,100,79,53,30.27,30.07,7,0,7,0.00
2012-2-5,46.6,31.5,23.9,28.6,23.3,19.4,99,73,51,30.13,30.04,14,1,14,0.00
2012-2-6,56.8,35.0,19.9,37.8,25.8,19.9,100,73,48,30.13,29.92,16,2,16,0.00
2012-2-7,44.6,35.6,25.7,32.8,27.8,22.9,94,74,55,30.19,29.95,11,2,11,0.00
2012-2-8,32.5,29.4,25.7,29.8,26.3,22.0,100,89,67,30.22,30.07,0,0,3,0.04
2012-2-9,47.1,30.8,20.8,30.4,22.3,17.1,100,73,51,30.13,30.07,14,2,14,0.00
2012-2-10,43.3,32.1,22.3,27.3,22.7,17.5,96,70,51,30.10,29.83,13,2,13,0.00
2012-2-11,37.9,29.2,15.3,34.0,26.1,4.2,100,89,61,29.86,29.59,22,2,22,0.16
2012-2-12,29.8,21.9,12.7,18.0,12.0,2.9,75,65,54,29.98,29.83,22,6,22,0.00
2012-2-13,43.3,31.5,22.5,25.5,18.7,13.5,73,59,50,30.01,29.95,19,5,19,0.00
2012-2-14,46.9,36.2,30.4,36.0,26.9,16.5,100,71,52,30.01,29.89,11,1,11,0.04
2012-2-15,48.4,35.8,26.2,39.9,32.2,25.6,100,88,62,30.22,29.98,15,2,15,0.00
2012-2-16,34.2,31.4,26.1,34.0,31.4,26.1,100,100,100,30.22,29.92,4,0,4,0.28
2012-2-17,50.5,38.0,31.3,37.0,28.6,18.7,100,72,49,30.01,29.89,13,2,17,0.00
2012-2-18,41.7,34.5,27.5,37.7,26.1,19.5,98,72,53,30.04,29.80,18,2,19,0.00
2012-2-19,44.6,33.6,28.0,27.5,22.8,17.6,82,65,51,30.07,29.92,13,2,14,0.00
2012-2-20,44.8,32.2,23.5,26.8,19.2,13.6,73,59,50,30.27,29.98,15,3,15,0.00
2012-2-21,43.2,32.6,20.1,27.4,21.9,15.3,88,66,50,30.27,29.74,15,2,15,0.00
2012-2-22,56.7,43.9,32.4,38.5,34.4,27.3,100,71,49,29.74,29.39,27,3,27,0.00
2012-2-23,60.1,45.4,36.5,40.7,34.3,26.1,100,68,48,29.68,29.33,21,3,24,0.04
2012-2-24,42.3,37.9,35.6,40.5,35.9,26.7,100,94,64,29.62,29.36,30,3,30,0.24
2012-2-25,44.1,34.9,28.2,29.1,22.4,13.3,75,60,51,30.10,29.48,28,8,28,0.20
2012-2-26,49.6,32.5,24.1,31.1,19.3,12.6,83,59,49,30.36,30.10,18,3,20,0.20
2012-2-27,57.6,39.0,20.5,38.1,28.0,19.5,100,68,48,30.30,30.01,26,3,26,0.20
2012-2-28,52.9,39.0,29.7,33.4,23.8,18.9,67,54,48,30.39,30.22,15,2,15,0.20
2012-2-29,37.9,35.2,31.5,37.9,31.7,21.6,100,88,59,30.24,29.59,9,1,9,0.24
2012-3-1,44.2,39.5,37.2,44.2,37.4,31.4,100,92,76,29.89,29.57,10,2,12,0.04
2012-3-2,53.2,39.1,28.9,41.2,35.1,28.9,100,87,58,29.95,29.59,14,1,14,0.24
2012-3-3,59.2,44.6,33.8,44.8,34.9,20.4,100,72,48,29.68,29.45,25,5,25,0.00
2012-3-4,47.1,33.8,25.2,30.7,23.2,16.5,91,66,49,29.77,29.59,20,3,20,0.00
2012-3-5,49.3,31.5,21.2,30.5,18.0,8.9,79,58,49,30.36,29.77,17,4,17,0.00
2012-3-6,43.7,31.5,17.4,26.0,17.6,7.3,79,57,50,30.54,30.36,12,1,12,0.00
2012-3-7,62.4,46.7,27.3,42.4,32.1,20.2,85,58,48,30.42,30.16,13,2,13,0.00
2012-3-8,69.4,55.6,43.9,56.8,47.2,37.5,100,75,49,30.16,29.77,22,5,22,0.12
2012-3-9,51.6,38.5,28.9,37.8,25.7,14.0,91,61,51,30.27,29.92,23,5,23,0.00
2012-3-10,46.4,31.7,22.8,28.3,16.2,7.8,59,52,49,30.48,30.27,14,3,19,0.00
2012-3-11,64.8,42.8,22.1,44.1,28.4,12.6,81,58,48,30.42,30.24,10,1,11,0.00
2012-3-12,70.9,44.2,31.5,49.2,34.9,29.1,96,72,46,30.27,30.04,10,1,10,0.00
2012-3-13,78.6,60.2,50.5,59.1,48.1,41.9,100,66,47,30.04,29.89,22,2,24,0.00
2012-3-14,75.4,57.4,39.9,54.3,42.5,34.6,100,60,45,30.16,29.98,12,2,12,0.00
2012-3-15,76.5,57.2,39.4,55.3,43.6,34.3,87,62,46,30.16,30.04,12,1,12,0.00
2012-3-16,66.4,53.6,46.4,53.8,49.0,43.6,100,86,63,30.16,30.04,6,1,7,0.00
2012-3-17,52.2,47.7,44.2,52.2,47.7,44.2,100,100,100,30.22,30.16,6,0,6,0.00
2012-3-18,70.2,60.9,53.8,57.3,54.2,51.4,100,80,60,30.27,30.13,10,2,10,0.00
2012-3-19,79.3,60.8,49.3,61.8,54.8,49.3,100,83,55,30.16,30.10,15,2,15,0.00
2012-3-20,74.8,63.3,55.9,64.1,58.7,55.2,100,87,58,30.24,30.13,9,1,9,0.00
2012-3-21,75.6,59.6,52.3,60.2,55.8,52.3,100,89,57,30.27,30.19,11,1,11,0.00
2012-3-22,76.5,62.3,54.0,60.8,57.0,54.0,100,85,56,30.24,30.07,7,1,8,0.00
2012-3-23,84.2,64.9,50.2,63.5,55.2,50.2,100,75,46,30.10,29.92,9,1,9,0.00
2012-3-24,65.5,55.9,46.2,55.6,50.6,40.6,100,83,59,29.95,29.89,10,1,10,0.16
2012-3-25,67.8,53.4,45.5,53.4,48.5,45.0,100,85,59,29.89,29.71,13,2,13,0.00
2012-3-26,54.1,43.9,31.8,51.1,29.4,15.3,94,57,49,30.19,29.74,32,7,32,0.00
2012-3-27,59.4,35.1,25.0,39.4,18.5,9.9,52,50,47,30.30,30.04,18,4,18,0.00
2012-3-28,71.8,53.1,36.3,53.5,36.4,20.1,91,54,47,30.04,29.51,26,2,26,0.04
2012-3-29,59.2,46.6,39.7,41.6,33.1,25.5,66,59,51,30.01,29.62,29,6,29,0.00
2012-3-30,62.2,45.7,29.7,45.1,31.5,21.0,100,59,48,30.07,29.77,13,2,13,0.12
2012-3-31,49.1,44.4,42.1,45.7,43.6,41.3,100,97,80,29.86,29.71,9,1,9,0.28
2012-4-1,56.7,45.9,40.8,48.6,44.0,40.8,100,94,63,29.86,29.59,11,1,12,0.12
2012-4-2,60.6,47.0,37.0,42.3,33.4,25.5,93,60,47,29.92,29.62,25,6,25,0.28
2012-4-3,74.1,52.3,33.6,50.7,33.8,18.2,57,49,46,29.98,29.74,13,2,13,0.28
2012-4-4,76.5,56.2,42.8,54.5,38.0,25.3,63,51,46,29.77,29.57,26,4,26,0.00
2012-4-5,62.6,45.3,32.9,42.7,29.7,20.1,76,55,48,29.95,29.74,15,5,15,0.00
2012-4-6,60.6,43.7,28.0,39.9,28.9,19.7,85,57,47,30.07,29.95,23,4,23,0.00
2012-4-7,65.7,48.4,32.7,44.6,30.8,18.2,58,50,47,30.16,30.01,23,5,23,0.00
2012-4-8,75.6,52.4,32.2,53.8,35.3,20.6,76,53,45,30.04,29.71,25,5,25,0.00
2012-4-9,66.9,52.4,43.5,45.9,34.0,26.1,54,49,47,29.80,29.65,30,7,33,0.00
2012-4-10,63.0,46.7,37.6,42.4,35.6,29.5,86,67,49,29.80,29.65,20,5,20,0.08
2012-4-11,56.7,41.5,35.4,40.7,34.2,29.9,92,76,50,29.95,29.77,18,5,21,0.08
2012-4-12,60.4,47.3,38.8,40.5,34.2,25.9,82,62,48,30.13,29.95,17,6,20,0.00
2012-4-13,72.0,40.3,29.7,49.9,32.2,27.5,100,76,46,30.19,30.10,15,1,15,0.00
2012-4-14,79.0,54.4,34.3,56.7,41.7,30.1,90,65,46,30.19,29.98,22,2,22,0.00
2012-4-15,82.8,62.9,52.9,62.9,55.9,49.7,100,80,49,30.01,29.89,15,1,15,0.00
2012-4-16,92.7,71.3,51.6,68.5,58.5,51.6,100,69,45,29.98,29.80,19,3,19,0.00
2012-4-17,79.3,65.0,52.3,57.0,45.6,34.6,59,49,46,30.19,29.89,20,5,20,0.00
2012-4-18,64.6,50.2,41.4,43.8,35.2,30.3,73,57,48,30.24,30.04,14,2,14,0.00
2012-4-19,79.2,56.3,34.9,57.2,44.4,34.0,100,68,47,30.07,29.92,9,2,10,0.00
2012-4-20,80.2,61.9,43.2,57.7,49.6,41.8,100,67,47,29.95,29.74,18,3,18,0.00
2012-4-21,80.4,59.4,43.9,62.7,53.2,42.2,100,82,52,29.83,29.62,15,2,15,0.20
2012-4-22,48.0,43.1,38.7,45.1,40.4,36.9,100,90,73,29.83,29.45,12,3,14,0.75
2012-4-23,45.9,38.7,35.8,41.3,37.1,34.0,100,95,75,29.45,29.24,27,4,27,0.71
2012-4-24,57.4,43.3,35.1,42.7,35.6,30.1,100,76,50,29.65,29.30,22,5,22,0.04
2012-4-25,67.8,46.8,31.5,46.7,36.8,28.9,100,73,47,29.83,29.65,17,2,17,0.04
2012-4-26,70.7,51.1,34.0,57.4,42.9,30.8,100,76,49,29.86,29.54,17,2,17,0.04
2012-4-27,54.5,44.6,39.9,41.9,32.8,25.9,81,64,50,29.98,29.68,21,6,21,0.00
2012-4-28,61.3,46.0,30.2,41.5,31.0,20.8,80,57,48,30.22,30.04,14,2,14,0.00
2012-4-29,69.3,49.4,29.7,47.4,36.5,25.5,100,65,47,30.19,30.04,18,4,18,0.00
2012-4-30,69.6,50.3,29.8,48.2,35.9,21.4,83,59,47,30.24,30.01,16,3,16,0.00
2012-5-1,83.8,62.1,49.8,63.4,54.1,43.9,100,78,46,30.01,29.89,17,1,17,0.24
2012-5-2,63.5,58.8,55.2,61.3,58.1,55.2,100,98,87,30.07,29.95,10,1,10,0.24
2012-5-3,81.1,62.4,54.7,68.0,60.2,50.0,100,93,64,30.07,29.89,18,1,18,0.20
2012-5-4,90.5,69.5,59.4,71.5,64.0,59.4,100,86,45,29.95,29.80,10,2,13,0.31
2012-5-5,79.0,66.5,57.7,64.4,57.4,47.2,100,75,48,30.01,29.86,10,2,11,0.00
2012-5-6,79.9,62.4,50.4,63.0,55.9,49.6,100,81,56,30.04,29.95,13,1,13,0.00
2012-5-7,61.3,57.5,54.5,61.2,57.5,54.3,100,100,99,30.04,29.92,16,1,16,0.35
2012-5-8,61.3,56.4,51.4,61.2,56.4,51.3,100,100,99,29.92,29.71,12,0,12,0.87
2012-5-9,79.5,63.7,55.8,63.3,54.2,44.9,100,74,46,29.71,29.62,19,2,19,0.00
2012-5-10,66.9,55.9,48.4,47.4,42.4,35.7,88,62,47,29.83,29.57,24,5,24,0.00
2012-5-11,76.6,57.7,38.8,54.7,42.8,34.6,96,60,46,30.10,29.83,20,3,20,0.00
2012-5-12,86.9,62.7,41.2,63.3,49.6,37.2,100,66,46,30.19,30.10,13,2,13,0.00
2012-5-13,81.1,64.8,53.1,59.5,53.5,48.9,100,70,47,30.16,30.07,10,1,10,0.00
2012-5-14,63.5,59.6,56.3,63.5,59.5,56.0,100,100,89,30.10,29.98,9,0,9,1.06
2012-5-15,79.0,65.2,59.9,69.8,62.9,59.9,100,93,65,30.01,29.86,9,1,9,1.02
2012-5-16,90.1,68.2,57.2,69.5,61.8,47.9,100,84,45,29.98,29.77,12,2,16,0.08
2012-5-17,77.7,59.5,43.7,55.7,45.0,37.7,97,61,46,30.10,29.98,12,3,12,0.91
2012-5-18,84.9,61.0,42.1,61.5,49.1,40.8,100,69,46,30.19,30.07,10,1,10,0.91
2012-5-19,92.5,67.6,46.8,67.6,55.4,46.6,100,70,45,30.16,30.07,10,1,10,0.91
2012-5-20,93.0,71.7,53.4,69.2,57.9,46.5,100,66,45,30.19,30.10,15,1,15,0.91
2012-5-21,72.5,64.1,54.9,68.2,60.0,48.4,100,87,61,30.13,29.92,9,1,9,0.91
2012-5-22,84.2,68.8,62.2,67.8,63.9,61.2,100,86,55,29.92,29.77,9,1,9,0.91
2012-5-23,87.1,69.4,60.3,70.0,64.6,60.3,100,87,54,29.98,29.83,12,1,12,0.91
2012-5-24,87.1,71.0,61.9,70.7,64.6,60.8,100,83,53,30.07,29.98,10,1,11,0.00
2012-5-25,89.4,74.5,65.3,71.1,67.3,65.0,100,81,53,30.10,30.04,13,2,13,0.00
2012-5-26,95.9,73.7,64.0,75.6,68.8,63.8,100,87,51,30.13,30.07,15,1,15,0.04
2012-5-27,88.7,72.2,62.8,71.9,65.9,57.1,100,83,53,30.13,29.98,15,2,15,0.28
2012-5-28,91.2,74.5,62.6,75.0,68.3,62.6,100,83,55,30.01,29.89,11,2,11,0.00
2012-5-29,92.8,73.2,65.5,75.2,68.6,63.7,100,88,52,29.89,29.68,15,2,22,0.28
2012-5-30,86.0,71.4,62.8,70.0,61.2,49.1,100,74,45,29.80,29.68,12,2,15,0.04
2012-5-31,79.0,65.2,52.9,57.0,51.7,46.9,90,63,47,29.92,29.77,9,2,10,0.00
2012-6-1,70.1,60.0,51.1,63.1,55.2,48.5,100,85,64,29.92,29.62,10,2,12,0.94
2012-6-2,72.7,59.9,49.6,59.0,51.0,45.3,100,75,48,29.77,29.65,15,3,15,0.00
2012-6-3,71.8,57.6,49.4,60.8,53.8,48.8,100,89,58,29.77,29.65,18,2,18,0.51
2012-6-4,70.9,57.9,52.0,57.2,53.0,47.2,100,86,51,29.80,29.59,13,3,13,0.04
2012-6-5,70.2,58.2,49.3,54.3,50.7,46.0,100,78,50,29.92,29.77,11,1,11,0.04
2012-6-6,81.0,62.9,48.2,59.1,53.6,48.2,100,75,47,29.95,29.89,13,1,13,0.00
2012-6-7,81.5,63.3,51.1,64.3,56.2,51.1,100,81,47,29.98,29.89,31,2,31,0.63
2012-6-8,86.7,67.3,51.6,64.4,57.9,51.6,100,76,46,29.95,29.83,19,2,19,0.63
2012-6-9,83.5,69.1,56.7,66.6,60.4,56.6,100,77,48,29.95,29.89,11,1,14,0.63
2012-6-10,94.6,76.3,59.5,71.2,65.5,59.5,100,74,46,30.10,29.95,12,1,12,0.63
2012-6-11,91.8,75.4,62.1,71.6,67.4,62.1,100,79,49,30.13,30.04,13,2,13,0.63
2012-6-12,70.7,68.4,66.4,70.7,68.4,66.4,100,100,99,30.04,29.83,8,1,8,0.75
2012-6-13,75.7,66.9,58.3,67.5,55.7,49.8,100,69,49,30.10,29.86,14,4,15,0.00
2012-6-14,84.7,68.5,51.6,63.5,57.2,50.7,100,71,46,30.19,30.10,9,1,9,0.63
2012-6-15,87.8,71.9,57.6,65.7,61.4,57.6,100,74,45,30.27,30.19,9,1,9,0.00
2012-6-16,86.0,70.5,58.3,65.1,60.4,54.5,100,74,48,30.30,30.16,10,2,10,0.00
2012-6-17,82.6,69.0,57.0,64.3,59.3,55.7,100,75,49,30.16,29.98,13,3,13,0.00
2012-6-18,65.8,63.3,60.3,64.2,61.1,57.5,100,93,83,30.07,29.98,15,1,15,0.04
2012-6-19,87.4,72.2,63.0,75.3,68.4,62.2,100,89,63,30.10,30.04,9,1,9,0.20
2012-6-20,98.8,80.6,68.0,77.0,71.3,66.7,100,77,45,30.10,29.98,11,1,11,0.00
2012-6-21,97.1,79.7,66.8,71.8,67.2,62.6,100,70,39,30.01,29.80,9,2,14,0.00
2012-6-22,92.0,72.5,63.0,74.2,66.2,55.3,100,84,45,29.86,29.80,11,1,11,0.67
2012-6-23,86.4,69.9,58.9,64.4,56.3,46.9,100,67,39,30.01,29.86,15,2,15,0.00
2012-6-24,84.4,68.3,54.6,61.4,55.8,51.5,100,68,41,30.01,29.86,9,1,9,0.00
2012-6-25,82.1,64.8,53.7,69.0,52.5,37.2,100,69,39,29.86,29.71,22,4,22,0.55
2012-6-26,77.1,63.2,50.8,50.9,46.2,41.5,78,56,40,29.83,29.74,17,4,17,0.00
2012-6-27,86.6,68.6,51.5,58.0,52.8,48.5,100,62,38,29.86,29.77,14,3,19,0.00
2012-6-28,92.3,72.3,55.3,65.1,58.8,52.9,100,67,39,29.86,29.71,10,1,10,0.00
2012-6-29,98.2,79.8,66.0,72.8,66.4,61.0,100,67,42,29.77,29.62,14,2,14,0.00
2012-6-30,88.3,75.1,64.6,65.3,60.6,56.6,92,62,43,29.83,29.71,10,2,10,0.00
2012-7-1,93.2,75.3,62.0,69.6,61.4,55.0,100,66,39,29.89,29.80,12,2,12,0.00
2012-7-2,89.9,74.0,60.2,62.4,57.8,52.5,96,60,38,29.98,29.89,17,2,17,0.00
2012-7-3,97.2,74.7,59.8,67.7,61.1,56.3,96,66,38,29.98,29.83,17,2,17,0.00
2012-7-4,90.1,77.9,64.9,74.8,67.6,60.3,100,73,48,29.89,29.74,15,2,15,0.08
2012-7-5,96.8,82.0,71.2,75.2,68.0,59.6,100,67,39,29.89,29.80,12,2,12,0.00
2012-7-6,97.7,80.9,65.7,72.2,67.0,62.1,98,66,39,29.95,29.86,11,1,11,0.00
2012-7-7,99.5,78.5,69.3,74.5,70.7,62.8,100,81,40,29.92,29.77,29,1,29,0.55
2012-7-8,91.3,78.2,71.0,73.3,65.7,54.7,100,70,40,29.92,29.83,10,1,10,0.00
2012-7-9,88.8,74.6,63.2,64.4,57.0,50.8,85,57,38,29.98,29.89,12,2,12,0.00
2012-7-10,89.7,71.6,57.5,66.6,57.9,53.7,100,67,38,30.10,29.98,12,2,12,0.08
2012-7-11,89.7,74.0,60.5,66.4,61.7,55.8,100,70,38,30.13,30.07,10,1,10,0.04
2012-7-12,91.5,76.8,63.2,66.5,62.3,55.2,100,65,38,30.19,30.07,12,2,12,0.00
2012-7-13,84.1,74.3,64.8,65.4,61.7,56.2,94,67,48,30.19,30.16,8,1,11,0.00
2012-7-14,81.4,73.4,66.6,68.3,63.3,58.9,100,72,52,30.22,30.10,10,2,10,0.00
2012-7-15,87.3,72.7,67.4,76.2,69.3,65.7,100,90,56,30.13,29.92,17,1,17,0.67
2012-7-16,91.7,76.8,67.2,76.7,66.6,59.7,100,75,45,29.98,29.83,12,2,12,0.00
2012-7-17,96.9,80.3,64.7,70.1,66.2,61.1,100,66,39,29.89,29.74,19,2,19,0.00
2012-7-18,98.0,79.3,71.1,76.2,71.3,63.5,100,79,43,29.92,29.80,19,1,19,0.08
2012-7-19,85.2,74.5,67.4,72.0,65.4,56.5,100,76,48,29.98,29.89,7,1,7,0.04
2012-7-20,69.5,65.3,62.0,68.5,65.1,61.8,100,99,94,30.04,29.89,10,1,10,1.46
2012-7-21,80.0,67.9,60.7,64.3,58.5,50.9,100,76,44,30.10,30.04,10,1,10,0.12
2012-7-22,85.5,73.0,62.0,65.5,62.1,56.9,100,72,43,30.13,30.04,0,0,0,0.12
2012-7-23,92.2,78.5,65.9,69.4,64.9,60.3,100,67,40,30.10,29.83,12,0,12,0.12
2012-7-24,93.6,80.8,71.5,71.0,61.6,49.7,90,55,34,29.86,29.65,19,2,19,0.12
2012-7-25,86.4,73.6,60.0,57.8,52.2,47.7,74,49,34,29.95,29.80,12,2,12,0.00
2012-7-26,92.4,72.1,64.3,77.9,65.2,55.2,100,81,50,29.80,29.59,31,1,35,1.10
2012-7-27,89.9,74.4,67.4,72.1,67.5,60.2,100,82,41,29.89,29.68,12,1,12,0.24
2012-7-28,87.2,72.3,66.6,69.0,66.0,59.2,100,83,44,29.95,29.86,12,1,12,0.08
2012-7-29,87.7,75.0,66.8,68.1,61.6,55.2,100,66,39,30.04,29.92,0,0,0,0.28
2012-7-30,88.6,73.3,62.1,66.8,62.6,58.9,97,72,39,30.07,29.98,0,0,0,0.28
2012-7-31,85.5,74.3,66.1,67.3,64.2,56.3,93,72,45,30.04,29.86,9,0,9,0.28
2012-8-1,87.2,72.5,65.7,67.9,65.3,60.3,100,81,45,29.92,29.80,0,0,0,0.00
2012-8-2,91.1,76.1,66.5,69.7,64.5,56.0,100,73,34,29.92,29.83,6,0,6,0.28
2012-8-3,93.8,77.2,64.3,70.2,65.4,60.6,100,71,38,30.07,29.92,7,0,7,0.28
2012-8-4,92.2,75.2,68.4,72.6,70.1,65.4,100,86,45,30.16,30.07,15,1,15,1.18
2012-8-5,84.3,74.7,69.7,75.2,72.5,69.2,100,93,64,30.10,29.92,18,1,18,0.59
2012-8-6,86.1,74.6,65.6,72.4,61.5,51.9,100,69,35,30.07,29.98,12,1,12,0.59
2012-8-7,84.8,70.8,59.3,63.4,59.7,55.4,99,72,43,30.01,29.92,8,1,8,0.59
2012-8-8,90.2,74.6,62.0,66.0,62.9,59.9,100,71,38,29.98,29.89,7,1,8,0.59
2012-8-9,91.5,74.9,65.4,68.2,64.2,55.1,100,73,41,29.92,29.80,17,0,17,0.59
2012-8-10,77.8,70.9,66.5,71.2,66.6,62.6,100,87,62,29.86,29.71,11,1,11,0.71
2012-8-11,83.4,73.2,66.1,69.1,60.2,50.0,100,68,37,29.92,29.74,17,2,17,0.59
2012-8-12,77.8,68.5,61.1,62.0,57.6,53.1,93,70,47,29.98,29.89,12,1,13,0.59
2012-8-13,85.4,70.1,60.7,64.1,59.2,53.4,100,73,37,30.04,29.95,10,1,10,0.04
2012-8-14,82.3,70.7,62.9,67.7,62.9,59.2,100,78,52,29.95,29.80,12,1,12,0.43
2012-8-15,81.8,70.9,63.0,67.5,63.8,57.0,100,81,48,29.92,29.83,10,1,10,0.08
2012-8-16,84.5,70.7,59.6,66.6,59.0,51.8,100,72,35,29.98,29.86,10,1,10,0.04
2012-8-17,80.1,68.5,63.0,64.8,61.3,57.4,96,79,53,29.89,29.80,12,1,12,0.04
2012-8-18,82.3,69.0,58.4,63.5,53.4,45.8,97,62,35,29.92,29.86,11,2,11,0.04
2012-8-19,74.9,62.5,53.3,58.0,53.0,48.5,95,74,44,29.98,29.86,6,1,7,0.04
2012-8-20,70.8,63.3,59.1,64.0,60.3,56.1,100,90,65,29.95,29.86,7,0,7,0.35
2012-8-21,81.6,66.4,58.4,61.3,57.4,49.9,100,77,38,30.07,29.95,9,1,9,0.00
2012-8-22,84.1,64.1,57.8,60.1,57.5,51.0,100,83,38,30.10,30.07,10,0,10,0.00
2012-8-23,88.2,70.5,59.4,62.9,58.3,50.4,100,71,34,30.16,30.10,9,0,9,0.00
2012-8-24,87.2,71.4,59.3,62.8,58.6,53.5,98,69,35,30.16,30.10,0,0,0,0.00
2012-8-25,75.2,65.6,61.6,63.0,60.2,55.2,97,84,51,30.22,30.16,5,0,5,0.00
2012-8-26,84.9,70.6,63.7,64.6,60.9,55.5,99,74,43,30.24,30.16,21,1,21,0.12
2012-8-27,86.0,72.9,64.7,71.1,65.3,60.1,100,81,46,30.16,29.92,11,1,11,0.28
2012-8-28,86.3,74.3,64.0,71.0,60.6,50.4,100,67,35,29.95,29.86,15,2,15,0.12
2012-8-29,79.5,67.4,57.2,57.3,50.7,46.1,86,57,36,30.04,29.95,10,2,10,0.12
2012-8-30,81.8,65.7,52.5,57.2,54.0,49.6,99,70,40,30.10,30.04,8,1,8,0.12
2012-8-31,89.2,70.7,56.5,60.6,57.1,53.4,100,68,34,30.07,29.92,15,2,15,0.00
2012-9-1,89.6,73.4,63.8,64.6,59.4,53.5,95,66,36,30.07,29.95,10,1,10,0.00
2012-9-2,72.7,66.2,61.1,67.0,60.7,55.8,93,83,67,30.07,29.98,9,0,9,0.00
2012-9-3,70.3,68.8,67.3,70.3,67.9,65.1,100,97,91,30.07,30.01,9,0,9,0.31
2012-9-4,79.3,71.4,67.3,71.9,68.7,65.4,100,92,66,30.04,29.77,11,1,11,0.04
2012-9-5,83.1,72.3,64.4,71.6,64.8,57.7,100,80,45,29.86,29.77,9,1,9,0.24
2012-9-6,87.3,71.3,62.6,70.7,64.1,59.0,100,81,46,29.92,29.83,9,1,9,0.12
2012-9-7,90.9,73.6,63.0,67.4,62.8,57.4,100,74,37,29.92,29.77,8,1,10,0.08
2012-9-8,75.5,68.0,57.3,68.3,62.3,53.5,96,82,64,29.80,29.59,24,2,24,0.20
2012-9-9,75.1,61.2,54.4,58.2,53.5,47.7,100,79,45,29.95,29.80,19,2,19,0.51
2012-9-10,73.3,59.6,47.9,53.2,46.2,36.1,98,66,36,30.13,29.95,19,3,19,0.00
2012-9-11,76.0,58.7,44.1,52.1,46.9,41.7,99,69,37,30.24,30.13,10,1,10,0.00
2012-9-12,81.0,62.4,50.6,58.0,51.0,45.3,100,72,35,30.30,30.24,10,1,10,0.00
2012-9-13,84.6,65.5,50.8,57.8,53.0,49.1,96,68,37,30.30,30.22,7,1,8,0.00
2012-9-14,82.7,66.5,53.1,57.7,53.9,50.8,95,67,40,30.24,30.04,17,2,17,0.04
2012-9-15,76.0,61.4,51.3,52.9,47.2,42.2,89,62,37,30.19,30.07,10,2,14,0.04
2012-9-16,78.7,60.5,49.5,52.3,47.9,42.7,100,68,36,30.13,30.01,12,1,12,0.00
2012-9-17,76.9,61.4,49.4,55.1,49.5,44.8,100,69,37,30.07,29.89,15,1,15,0.00
2012-9-18,68.8,65.6,59.6,68.6,63.4,50.8,100,93,69,29.89,29.51,16,3,16,2.28
2012-9-19,70.6,57.4,47.2,50.8,43.9,36.1,96,64,36,30.13,29.77,12,2,14,0.00
2012-9-20,72.0,55.8,42.3,49.8,44.8,40.7,100,72,37,30.16,30.01,10,2,12,0.00
2012-9-21,78.0,62.3,49.2,61.9,52.7,47.4,99,74,45,30.01,29.89,10,1,14,0.00
2012-9-22,80.9,65.7,54.9,61.4,54.5,41.2,93,69,46,29.89,29.71,19,3,19,0.00
2012-9-23,66.5,54.5,46.3,43.9,40.1,34.9,84,60,36,30.10,29.89,14,3,14,0.00
2012-9-24,65.1,51.6,42.1,45.4,38.7,31.6,94,65,36,30.16,30.04,15,2,15,0.00
2012-9-25,70.3,48.1,36.8,54.1,39.4,35.0,99,76,38,30.13,30.01,13,1,13,0.08
2012-9-26,62.0,58.2,54.1,62.0,58.0,53.5,100,99,96,30.04,29.98,6,0,6,0.04
2012-9-27,69.6,61.4,55.6,60.6,53.2,41.7,100,77,43,30.16,30.04,10,1,10,0.16
2012-9-28,70.9,59.5,54.8,60.9,53.6,45.4,100,83,53,30.07,29.92,10,2,11,0.94
2012-9-29,67.6,55.7,48.0,46.7,42.7,38.4,90,63,41,29.98,29.86,9,2,10,0.00
2012-9-30,64.0,52.3,45.5,50.2,45.6,40.1,100,81,47,29.89,29.77,10,1,10,0.12
2012-10-1,70.3,55.3,43.5,51.8,45.5,40.7,100,74,38,29.92,29.83,13,1,13,0.12
2012-10-2,60.6,57.8,55.2,59.7,55.8,48.7,100,93,77,29.95,29.89,7,0,7,0.59
2012-10-3,74.6,64.4,59.7,66.9,62.6,59.5,100,94,65,30.10,29.92,6,0,6,0.12
2012-10-4,75.4,64.8,55.6,68.9,59.0,47.1,100,84,42,30.13,30.04,10,1,10,0.12
2012-10-5,81.8,62.1,51.6,58.5,53.4,50.4,100,78,40,30.07,29.86,11,1,11,0.12
2012-10-6,60.8,54.7,46.9,57.6,45.4,29.4,100,74,40,30.01,29.74,17,2,17,0.04
2012-10-7,51.6,46.7,41.0,41.4,35.7,29.8,88,66,50,30.07,29.95,8,1,11,0.08
2012-10-8,46.9,38.2,34.3,38.9,33.9,31.7,96,85,64,30.22,30.07,7,1,7,0.00
2012-10-9,65.5,54.4,44.0,45.8,40.8,34.7,96,62,40,30.16,30.01,10,1,10,0.00
2012-10-10,62.8,51.9,42.1,48.6,41.5,33.4,93,70,44,30.01,29.77,19,3,19,0.00
2012-10-11,61.9,47.0,37.4,35.2,29.6,23.6,75,52,37,30.19,29.98,16,4,16,0.00
2012-10-12,60.4,42.6,32.9,37.1,29.0,18.7,92,62,37,30.39,30.04,15,3,19,0.00
2012-10-13,56.1,40.0,25.7,30.9,25.2,19.2,85,58,38,30.45,30.16,14,1,14,0.00
2012-10-14,69.4,56.0,46.2,46.4,38.7,29.1,65,53,38,30.16,29.80,15,2,15,0.00
2012-10-15,65.3,59.3,52.0,53.6,44.7,33.8,86,60,39,29.80,29.62,18,5,18,0.00
2012-10-16,62.2,49.9,39.4,39.5,32.5,27.8,74,52,37,29.89,29.74,20,4,20,0.00
2012-10-17,65.6,47.3,33.4,41.2,35.2,30.7,95,67,39,29.95,29.86,10,1,10,0.00
2012-10-18,65.8,54.5,42.4,53.9,42.5,36.1,94,66,41,29.89,29.77,17,2,17,0.20
2012-10-19,61.5,55.6,52.1,57.2,54.1,52.1,100,95,80,29.80,29.59,12,1,12,0.59
2012-10-20,61.9,49.8,39.9,55.0,40.8,31.8,100,75,40,29.83,29.59,16,2,16,0.59
2012-10-21,66.2,48.9,38.5,43.9,36.8,32.6,99,67,37,30.04,29.83,17,3,17,0.59
2012-10-22,71.8,51.1,35.4,43.8,37.4,32.5,99,64,35,30.13,30.01,12,2,12,0.59
2012-10-23,64.0,52.9,45.3,52.9,46.4,37.5,97,79,61,30.07,29.98,7,0,7,0.59
2012-10-24,80.8,62.9,52.3,58.6,53.4,48.5,100,75,38,30.07,29.98,8,1,8,0.04
2012-10-25,63.8,60.0,57.9,56.9,53.6,50.7,90,80,64,30.16,30.07,9,1,9,0.04
2012-10-26,61.1,59.0,57.7,54.6,52.8,51.2,87,80,71,30.13,30.04,9,1,9,0.04
2012-10-27,60.4,57.6,53.0,55.0,52.9,49.7,94,84,69,30.04,29.86,6,0,7,0.00
2012-10-28,54.5,50.6,47.1,52.9,44.5,41.7,95,80,71,29.89,29.65,13,3,13,0.12
2012-10-29,56.1,48.8,46.9,52.1,44.2,40.6,95,84,72,29.68,28.68,38,9,38,1.61
2012-10-30,55.6,43.5,38.3,49.1,39.8,35.9,96,87,65,29.36,28.68,40,5,40,0.59
2012-10-31,40.1,38.4,35.9,38.9,36.5,33.5,98,93,78,29.51,29.36,10,3,10,0.08
2012-11-1,45.5,42.2,39.7,34.0,32.7,30.7,78,69,61,29.59,29.48,16,5,16,0.04
2012-11-2,44.6,40.6,37.6,33.5,28.1,23.7,74,61,51,29.77,29.59,19,5,19,0.04
2012-11-3,48.0,39.7,36.5,26.9,23.4,20.6,63,52,43,29.98,29.77,22,6,22,0.04
2012-11-4,38.5,36.4,33.8,26.9,22.7,18.7,74,57,53,29.98,29.95,17,5,17,0.04
2012-11-5,37.9,34.9,32.5,21.8,18.6,15.1,55,51,43,30.10,29.95,16,5,16,0.04
2012-11-6,48.7,32.4,24.2,25.0,17.0,11.5,70,54,38,30.13,29.98,10,1,10,0.04
2012-11-7,50.5,33.9,24.2,27.0,17.6,12.7,77,53,37,30.01,29.86,14,3,14,0.04
2012-11-8,53.9,39.2,31.6,29.6,18.4,12.7,55,43,37,29.98,29.86,24,6,24,0.04
2012-11-9,59.7,41.7,33.1,34.1,25.5,13.3,72,54,38,30.13,29.98,15,3,15,0.04
2012-11-10,47.5,38.9,32.9,37.4,32.1,26.0,89,77,61,30.27,30.13,5,0,5,0.04
2012-11-11,66.5,49.9,36.8,40.5,35.5,31.9,91,62,36,30.36,30.24,10,2,10,0.04
2012-11-12,64.2,54.9,45.3,54.3,42.6,33.8,87,63,51,30.30,30.01,25,3,25,0.20
2012-11-13,50.3,40.4,34.8,38.3,26.7,18.3,91,59,40,30.42,30.16,20,5,20,0.24
2012-11-14,54.8,39.5,28.7,30.0,20.7,16.0,70,47,37,30.48,30.39,10,3,12,0.00
2012-11-15,48.1,34.0,26.1,26.9,23.0,20.1,83,66,40,30.39,30.24,7,0,7,0.00
2012-11-16,55.8,37.6,26.3,30.9,25.1,20.5,89,64,38,30.42,30.24,15,2,15,0.00
2012-11-17,60.5,38.5,26.7,34.7,27.1,22.9,90,67,38,30.54,30.42,7,1,7,0.00
2012-11-18,58.7,36.2,25.2,33.2,26.2,23.1,94,71,38,30.57,30.48,7,1,8,0.00
2012-11-19,57.1,36.3,24.9,34.5,26.2,21.7,92,70,38,30.48,30.19,8,1,8,0.00
2012-11-20,52.8,37.3,28.7,32.7,28.0,25.6,92,71,42,30.19,30.04,5,0,5,0.00
2012-11-21,64.1,39.8,28.8,37.0,27.9,21.7,91,66,37,30.19,30.07,8,1,8,0.00
2012-11-22,57.4,35.9,24.0,32.1,24.7,20.5,89,67,38,30.22,30.04,7,1,7,0.00
2012-11-23,52.8,36.3,24.1,38.9,27.5,15.6,97,73,39,30.04,29.68,18,2,24,0.04
2012-11-24,40.9,32.6,29.9,23.2,17.8,14.5,72,54,42,29.86,29.74,23,7,23,0.00
2012-11-25,36.2,30.9,26.3,19.1,14.8,11.3,66,51,42,29.89,29.80,16,4,18,0.00
2012-11-26,50.4,34.3,27.6,26.1,18.6,12.8,68,54,38,30.16,29.89,15,2,15,0.00
2012-11-27,37.0,32.1,28.4,30.2,25.2,16.8,92,76,55,30.22,30.16,10,1,10,0.31
2012-11-28,40.8,31.4,21.2,23.4,16.5,12.1,82,56,40,30.22,30.13,16,3,16,0.04
2012-11-29,48.0,34.1,26.0,24.4,17.5,11.9,70,51,38,30.30,30.22,14,4,14,0.00
2012-11-30,47.1,33.8,23.7,24.1,20.8,17.1,79,60,40,30.30,30.24,8,0,8,0.00
2012-12-1,41.5,38.8,35.9,36.0,30.5,22.4,89,72,55,30.36,30.30,7,1,9,0.00
2012-12-2,45.3,41.5,38.1,43.3,38.8,35.4,100,91,70,30.33,30.01,12,1,12,0.04
2012-12-3,59.5,47.7,39.5,50.9,46.1,39.5,100,95,66,30.19,30.07,6,0,6,0.00
2012-12-4,69.6,57.4,50.5,56.4,50.9,45.8,100,81,50,30.16,29.86,21,2,21,0.04
2012-12-5,54.5,42.8,30.8,48.2,26.8,11.3,85,54,40,30.24,29.92,26,5,26,0.04
2012-12-6,44.7,31.9,25.2,20.8,15.3,11.2,65,50,38,30.30,30.16,12,2,12,0.00
2012-12-7,37.5,34.1,27.9,35.9,28.7,17.3,96,81,58,30.16,29.95,5,0,5,0.35
2012-12-8,44.1,40.1,36.4,42.7,39.1,35.3,100,96,91,29.95,29.80,5,0,6,0.24
2012-12-9,40.5,38.8,37.8,38.0,33.1,27.1,97,81,60,30.19,29.92,7,0,7,0.12
2012-12-10,47.7,43.7,38.6,47.7,42.7,35.0,100,96,72,29.92,29.51,17,1,17,0.24
2012-12-11,46.3,37.9,28.7,38.7,27.0,17.1,93,66,42,30.13,29.65,15,2,15,0.04
2012-12-12,49.4,34.0,26.7,26.7,21.8,13.6,86,63,38,30.39,30.13,10,1,10,0.00
2012-12-13,48.8,31.0,21.6,24.9,19.4,14.7,84,64,38,30.39,30.24,10,1,10,0.04
2012-12-14,51.7,32.5,21.1,28.0,21.2,16.2,82,65,40,30.24,30.13,6,0,6,0.00
2012-12-15,47.7,35.3,25.8,29.9,25.2,21.0,84,68,48,30.24,30.04,5,0,5,0.00
2012-12-16,46.8,43.7,37.7,40.9,34.9,27.6,84,71,64,30.07,29.80,10,2,10,0.00
2012-12-17,47.2,44.9,43.1,43.9,42.1,39.5,97,90,76,29.80,29.54,11,1,11,0.83
2012-12-18,45.6,41.9,37.1,44.6,36.6,22.2,100,83,55,29.71,29.45,20,3,20,0.08
2012-12-19,47.7,39.0,31.7,29.0,25.8,22.7,78,59,43,30.10,29.71,15,4,15,0.08
2012-12-20,38.6,33.9,29.4,38.0,27.4,22.1,98,78,53,30.13,29.45,15,2,15,0.43
2012-12-21,42.5,36.3,33.5,42.5,28.0,20.5,100,73,56,29.45,29.21,19,7,19,1.18
2012-12-22,38.9,33.9,32.3,24.6,17.6,14.2,70,51,42,29.89,29.33,30,9,30,0.08
2012-12-23,47.4,34.9,29.0,23.1,17.2,11.8,57,49,38,29.92,29.80,19,4,19,0.00
2012-12-24,44.5,31.5,22.9,28.4,20.5,15.1,85,65,40,29.98,29.83,9,1,9,0.08
2012-12-25,41.3,33.3,29.0,31.5,25.0,16.8,91,73,56,30.22,29.83,15,3,15,0.00
2012-12-26,32.8,28.0,23.8,29.9,20.1,12.9,95,72,59,30.22,29.48,11,3,11,0.63
2012-12-27,33.5,30.4,28.3,27.5,21.1,17.4,87,68,58,29.89,29.45,21,6,21,0.04
2012-12-28,36.0,30.2,21.5,21.9,19.8,15.0,83,65,56,30.07,29.89,17,3,17,0.00
2012-12-29,31.5,27.5,22.2,25.9,21.9,17.0,89,80,62,29.98,29.54,20,2,20,0.39
2012-12-30,34.1,29.9,26.5,18.5,15.4,11.7,63,55,46,30.19,29.68,28,6,28,0.08
2012-12-31,37.3,27.3,21.6,25.3,15.2,12.6,70,60,46,30.16,29.83,19,4,19,0.00
2013-1-1,36.6,33.2,27.2,25.5,19.1,8.5,67,56,45,29.95,29.83,17,5,17,0.00